<?xml version="1.0" encoding="UTF-8" standalone="no" ?>
<gpx xmlns="http://www.topografix.com/GPX/1/1" xmlns:xsi="http://www.w3.org/2001/XMLSchema-instance" xsi:schemaLocation="http://www.topografix.com/GPX/1/1 http://www.topografix.com/GPX/1/1/gpx.xsd" version="1.1" creator="VisuGPX - https://www.visugpx.com">
  <metadata>
    <name>Parcours</name>
    <desc><![CDATA[Avec Samira]]></desc>
  </metadata>
  <trk>
    <name><![CDATA[ONmove 100 - 08/11/2014]]></name>
    <trkseg>
      <trkpt lat="45.7736" lon="3.01906">
        <ele>757.1</ele>
        <time>2014-11-08T07:37:03Z</time>
      </trkpt>
      <trkpt lat="45.77313" lon="3.01829">
        <ele>770.1</ele>
        <time>2014-11-08T07:38:11Z</time>
      </trkpt>
      <trkpt lat="45.77299" lon="3.01725">
        <ele>776.2</ele>
        <time>2014-11-08T07:39:20Z</time>
      </trkpt>
      <trkpt lat="45.7726" lon="3.0164">
        <ele>778.6</ele>
        <time>2014-11-08T07:40:21Z</time>
      </trkpt>
      <trkpt lat="45.77212" lon="3.01562">
        <ele>784.9</ele>
        <time>2014-11-08T07:41:20Z</time>
      </trkpt>
      <trkpt lat="45.77159" lon="3.01494">
        <ele>789.1</ele>
        <time>2014-11-08T07:42:20Z</time>
      </trkpt>
      <trkpt lat="45.77123" lon="3.01404">
        <ele>792.6</ele>
        <time>2014-11-08T07:43:20Z</time>
      </trkpt>
      <trkpt lat="45.77082" lon="3.01326">
        <ele>792.6</ele>
        <time>2014-11-08T07:44:12Z</time>
      </trkpt>
      <trkpt lat="45.77044" lon="3.01236">
        <ele>796</ele>
        <time>2014-11-08T07:45:07Z</time>
      </trkpt>
      <trkpt lat="45.77003" lon="3.01145">
        <ele>796.9</ele>
        <time>2014-11-08T07:46:05Z</time>
      </trkpt>
      <trkpt lat="45.76973" lon="3.0105">
        <ele>798.3</ele>
        <time>2014-11-08T07:47:01Z</time>
      </trkpt>
      <trkpt lat="45.76949" lon="3.00955">
        <ele>798.2</ele>
        <time>2014-11-08T07:47:55Z</time>
      </trkpt>
      <trkpt lat="45.76931" lon="3.00854">
        <ele>801.9</ele>
        <time>2014-11-08T07:48:50Z</time>
      </trkpt>
      <trkpt lat="45.76895" lon="3.00759">
        <ele>805.1</ele>
        <time>2014-11-08T07:49:50Z</time>
      </trkpt>
      <trkpt lat="45.76869" lon="3.00662">
        <ele>808.2</ele>
        <time>2014-11-08T07:50:45Z</time>
      </trkpt>
      <trkpt lat="45.76866" lon="3.00559">
        <ele>813.3</ele>
        <time>2014-11-08T07:51:40Z</time>
      </trkpt>
      <trkpt lat="45.76882" lon="3.00454">
        <ele>816.9</ele>
        <time>2014-11-08T07:52:40Z</time>
      </trkpt>
      <trkpt lat="45.76879" lon="3.00317">
        <ele>820.8</ele>
        <time>2014-11-08T07:53:55Z</time>
      </trkpt>
      <trkpt lat="45.76879" lon="3.0019">
        <ele>822.7</ele>
        <time>2014-11-08T07:55:15Z</time>
      </trkpt>
      <trkpt lat="45.76963" lon="3.00127">
        <ele>826.3</ele>
        <time>2014-11-08T07:56:55Z</time>
      </trkpt>
      <trkpt lat="45.77022" lon="3.00021">
        <ele>830.1</ele>
        <time>2014-11-08T07:58:30Z</time>
      </trkpt>
      <trkpt lat="45.77107" lon="2.99956">
        <ele>836.8</ele>
        <time>2014-11-08T08:00:53Z</time>
      </trkpt>
      <trkpt lat="45.77168" lon="2.99906">
        <ele>841.5</ele>
        <time>2014-11-08T08:01:47Z</time>
      </trkpt>
      <trkpt lat="45.77242" lon="2.99843">
        <ele>849</ele>
        <time>2014-11-08T08:03:05Z</time>
      </trkpt>
      <trkpt lat="45.7733" lon="2.9983">
        <ele>854</ele>
        <time>2014-11-08T08:04:25Z</time>
      </trkpt>
      <trkpt lat="45.77355" lon="2.99717">
        <ele>858</ele>
        <time>2014-11-08T08:06:20Z</time>
      </trkpt>
      <trkpt lat="45.77337" lon="2.99609">
        <ele>861.1</ele>
        <time>2014-11-08T08:07:30Z</time>
      </trkpt>
      <trkpt lat="45.77352" lon="2.99495">
        <ele>864.2</ele>
        <time>2014-11-08T08:08:55Z</time>
      </trkpt>
      <trkpt lat="45.77339" lon="2.99381">
        <ele>867.3</ele>
        <time>2014-11-08T08:10:56Z</time>
      </trkpt>
      <trkpt lat="45.77416" lon="2.99263">
        <ele>877.5</ele>
        <time>2014-11-08T08:13:45Z</time>
      </trkpt>
      <trkpt lat="45.77336" lon="2.99152">
        <ele>877.7</ele>
        <time>2014-11-08T08:15:20Z</time>
      </trkpt>
      <trkpt lat="45.77288" lon="2.99062">
        <ele>877.6</ele>
        <time>2014-11-08T08:16:25Z</time>
      </trkpt>
      <trkpt lat="45.77266" lon="2.98945">
        <ele>881.7</ele>
        <time>2014-11-08T08:17:40Z</time>
      </trkpt>
      <trkpt lat="45.77257" lon="2.9885">
        <ele>882.9</ele>
        <time>2014-11-08T08:18:30Z</time>
      </trkpt>
      <trkpt lat="45.77218" lon="2.98763">
        <ele>883.2</ele>
        <time>2014-11-08T08:19:28Z</time>
      </trkpt>
      <trkpt lat="45.7717" lon="2.987">
        <ele>884.5</ele>
        <time>2014-11-08T08:20:12Z</time>
      </trkpt>
      <trkpt lat="45.77137" lon="2.98612">
        <ele>888.1</ele>
        <time>2014-11-08T08:21:26Z</time>
      </trkpt>
      <trkpt lat="45.77107" lon="2.98531">
        <ele>896</ele>
        <time>2014-11-08T08:22:40Z</time>
      </trkpt>
      <trkpt lat="45.77062" lon="2.98457">
        <ele>902</ele>
        <time>2014-11-08T08:23:40Z</time>
      </trkpt>
      <trkpt lat="45.76996" lon="2.98392">
        <ele>906.7</ele>
        <time>2014-11-08T08:24:48Z</time>
      </trkpt>
      <trkpt lat="45.77005" lon="2.98276">
        <ele>912.1</ele>
        <time>2014-11-08T08:25:55Z</time>
      </trkpt>
      <trkpt lat="45.77007" lon="2.98145">
        <ele>918.6</ele>
        <time>2014-11-08T08:27:15Z</time>
      </trkpt>
      <trkpt lat="45.77013" lon="2.98008">
        <ele>926.9</ele>
        <time>2014-11-08T08:28:37Z</time>
      </trkpt>
      <trkpt lat="45.76926" lon="2.97954">
        <ele>930.3</ele>
        <time>2014-11-08T08:30:05Z</time>
      </trkpt>
      <trkpt lat="45.76834" lon="2.97944">
        <ele>930.1</ele>
        <time>2014-11-08T08:31:20Z</time>
      </trkpt>
      <trkpt lat="45.76754" lon="2.97915">
        <ele>930.3</ele>
        <time>2014-11-08T08:32:15Z</time>
      </trkpt>
      <trkpt lat="45.76689" lon="2.97895">
        <ele>930.6</ele>
        <time>2014-11-08T08:33:06Z</time>
      </trkpt>
      <trkpt lat="45.76617" lon="2.97885">
        <ele>927.7</ele>
        <time>2014-11-08T08:34:11Z</time>
      </trkpt>
      <trkpt lat="45.76544" lon="2.97887">
        <ele>925.6</ele>
        <time>2014-11-08T08:35:08Z</time>
      </trkpt>
      <trkpt lat="45.76484" lon="2.97843">
        <ele>924.1</ele>
        <time>2014-11-08T08:35:51Z</time>
      </trkpt>
      <trkpt lat="45.76425" lon="2.97809">
        <ele>923.2</ele>
        <time>2014-11-08T08:36:35Z</time>
      </trkpt>
      <trkpt lat="45.76378" lon="2.97744">
        <ele>923.8</ele>
        <time>2014-11-08T08:37:24Z</time>
      </trkpt>
      <trkpt lat="45.76319" lon="2.97701">
        <ele>924.1</ele>
        <time>2014-11-08T08:38:13Z</time>
      </trkpt>
      <trkpt lat="45.76264" lon="2.97655">
        <ele>924.7</ele>
        <time>2014-11-08T08:39:01Z</time>
      </trkpt>
      <trkpt lat="45.7621" lon="2.97619">
        <ele>925.6</ele>
        <time>2014-11-08T08:39:58Z</time>
      </trkpt>
      <trkpt lat="45.76143" lon="2.97582">
        <ele>927.2</ele>
        <time>2014-11-08T08:41:03Z</time>
      </trkpt>
      <trkpt lat="45.76082" lon="2.97529">
        <ele>929</ele>
        <time>2014-11-08T08:41:57Z</time>
      </trkpt>
      <trkpt lat="45.76015" lon="2.97463">
        <ele>932.8</ele>
        <time>2014-11-08T08:43:07Z</time>
      </trkpt>
      <trkpt lat="45.75936" lon="2.97412">
        <ele>935.7</ele>
        <time>2014-11-08T08:44:17Z</time>
      </trkpt>
      <trkpt lat="45.75851" lon="2.97406">
        <ele>939</ele>
        <time>2014-11-08T08:45:19Z</time>
      </trkpt>
      <trkpt lat="45.75768" lon="2.9741">
        <ele>944.4</ele>
        <time>2014-11-08T08:46:26Z</time>
      </trkpt>
      <trkpt lat="45.75706" lon="2.97403">
        <ele>947.1</ele>
        <time>2014-11-08T08:47:27Z</time>
      </trkpt>
      <trkpt lat="45.75648" lon="2.9739">
        <ele>950.3</ele>
        <time>2014-11-08T08:48:16Z</time>
      </trkpt>
      <trkpt lat="45.75666" lon="2.97292">
        <ele>952.5</ele>
        <time>2014-11-08T08:49:21Z</time>
      </trkpt>
      <trkpt lat="45.7569" lon="2.97192">
        <ele>955.3</ele>
        <time>2014-11-08T08:50:21Z</time>
      </trkpt>
      <trkpt lat="45.75711" lon="2.97077">
        <ele>955.4</ele>
        <time>2014-11-08T08:51:36Z</time>
      </trkpt>
      <trkpt lat="45.75739" lon="2.96957">
        <ele>954.3</ele>
        <time>2014-11-08T08:52:51Z</time>
      </trkpt>
      <trkpt lat="45.75763" lon="2.96857">
        <ele>957.2</ele>
        <time>2014-11-08T08:53:51Z</time>
      </trkpt>
      <trkpt lat="45.75786" lon="2.96764">
        <ele>960</ele>
        <time>2014-11-08T08:54:48Z</time>
      </trkpt>
      <trkpt lat="45.75814" lon="2.96664">
        <ele>962.9</ele>
        <time>2014-11-08T08:55:46Z</time>
      </trkpt>
      <trkpt lat="45.75848" lon="2.96576">
        <ele>964.3</ele>
        <time>2014-11-08T08:56:51Z</time>
      </trkpt>
      <trkpt lat="45.75913" lon="2.96532">
        <ele>964.8</ele>
        <time>2014-11-08T08:57:56Z</time>
      </trkpt>
      <trkpt lat="45.75985" lon="2.96507">
        <ele>966.5</ele>
        <time>2014-11-08T08:58:58Z</time>
      </trkpt>
      <trkpt lat="45.76053" lon="2.9646">
        <ele>970.3</ele>
        <time>2014-11-08T09:00:08Z</time>
      </trkpt>
      <trkpt lat="45.76113" lon="2.96408">
        <ele>974.4</ele>
        <time>2014-11-08T09:01:07Z</time>
      </trkpt>
      <trkpt lat="45.76183" lon="2.96364">
        <ele>981</ele>
        <time>2014-11-08T09:02:06Z</time>
      </trkpt>
      <trkpt lat="45.76241" lon="2.96299">
        <ele>987.7</ele>
        <time>2014-11-08T09:03:38Z</time>
      </trkpt>
      <trkpt lat="45.76254" lon="2.96193">
        <ele>995.3</ele>
        <time>2014-11-08T09:05:49Z</time>
      </trkpt>
      <trkpt lat="45.76262" lon="2.96082">
        <ele>1005.4</ele>
        <time>2014-11-08T09:07:16Z</time>
      </trkpt>
      <trkpt lat="45.76293" lon="2.95995">
        <ele>1017.2</ele>
        <time>2014-11-08T09:08:36Z</time>
      </trkpt>
      <trkpt lat="45.76303" lon="2.95898">
        <ele>1030.5</ele>
        <time>2014-11-08T09:09:54Z</time>
      </trkpt>
      <trkpt lat="45.76326" lon="2.95798">
        <ele>1047.9</ele>
        <time>2014-11-08T09:11:46Z</time>
      </trkpt>
      <trkpt lat="45.76321" lon="2.95699">
        <ele>1064.2</ele>
        <time>2014-11-08T09:13:24Z</time>
      </trkpt>
      <trkpt lat="45.76382" lon="2.95605">
        <ele>1075.3</ele>
        <time>2014-11-08T09:15:04Z</time>
      </trkpt>
      <trkpt lat="45.76376" lon="2.95482">
        <ele>1074</ele>
        <time>2014-11-08T09:16:37Z</time>
      </trkpt>
      <trkpt lat="45.76327" lon="2.95391">
        <ele>1065.8</ele>
        <time>2014-11-08T09:17:41Z</time>
      </trkpt>
      <trkpt lat="45.76268" lon="2.95312">
        <ele>1056.2</ele>
        <time>2014-11-08T09:18:41Z</time>
      </trkpt>
      <trkpt lat="45.76207" lon="2.95202">
        <ele>1044</ele>
        <time>2014-11-08T09:20:04Z</time>
      </trkpt>
      <trkpt lat="45.76137" lon="2.95106">
        <ele>1045.7</ele>
        <time>2014-11-08T09:21:18Z</time>
      </trkpt>
      <trkpt lat="45.76205" lon="2.95006">
        <ele>1036</ele>
        <time>2014-11-08T09:22:46Z</time>
      </trkpt>
      <trkpt lat="45.7628" lon="2.94926">
        <ele>1027.2</ele>
        <time>2014-11-08T09:24:06Z</time>
      </trkpt>
      <trkpt lat="45.76302" lon="2.9483">
        <ele>1022</ele>
        <time>2014-11-08T09:24:54Z</time>
      </trkpt>
      <trkpt lat="45.76321" lon="2.94732">
        <ele>1015.5</ele>
        <time>2014-11-08T09:25:51Z</time>
      </trkpt>
      <trkpt lat="45.76337" lon="2.94622">
        <ele>1009.2</ele>
        <time>2014-11-08T09:27:28Z</time>
      </trkpt>
      <trkpt lat="45.76414" lon="2.94582">
        <ele>1004.1</ele>
        <time>2014-11-08T09:28:51Z</time>
      </trkpt>
      <trkpt lat="45.76431" lon="2.9449">
        <ele>1001.7</ele>
        <time>2014-11-08T09:29:51Z</time>
      </trkpt>
      <trkpt lat="45.76436" lon="2.94387">
        <ele>998.3</ele>
        <time>2014-11-08T09:30:56Z</time>
      </trkpt>
      <trkpt lat="45.76461" lon="2.94287">
        <ele>993.3</ele>
        <time>2014-11-08T09:32:01Z</time>
      </trkpt>
      <trkpt lat="45.76511" lon="2.94214">
        <ele>988.6</ele>
        <time>2014-11-08T09:33:06Z</time>
      </trkpt>
      <trkpt lat="45.76548" lon="2.94133">
        <ele>982.9</ele>
        <time>2014-11-08T09:34:11Z</time>
      </trkpt>
      <trkpt lat="45.76579" lon="2.94045">
        <ele>977.9</ele>
        <time>2014-11-08T09:35:11Z</time>
      </trkpt>
      <trkpt lat="45.76618" lon="2.93975">
        <ele>973.9</ele>
        <time>2014-11-08T09:35:56Z</time>
      </trkpt>
      <trkpt lat="45.76685" lon="2.93912">
        <ele>968.5</ele>
        <time>2014-11-08T09:37:19Z</time>
      </trkpt>
      <trkpt lat="45.76747" lon="2.93854">
        <ele>963</ele>
        <time>2014-11-08T09:38:16Z</time>
      </trkpt>
      <trkpt lat="45.76808" lon="2.93802">
        <ele>958</ele>
        <time>2014-11-08T09:39:21Z</time>
      </trkpt>
      <trkpt lat="45.76874" lon="2.938">
        <ele>955.8</ele>
        <time>2014-11-08T09:40:09Z</time>
      </trkpt>
      <trkpt lat="45.76945" lon="2.93804">
        <ele>953</ele>
        <time>2014-11-08T09:41:03Z</time>
      </trkpt>
      <trkpt lat="45.77076" lon="2.93799">
        <ele>949</ele>
        <time>2014-11-08T09:43:03Z</time>
      </trkpt>
      <trkpt lat="45.77143" lon="2.93778">
        <ele>946.9</ele>
        <time>2014-11-08T09:43:59Z</time>
      </trkpt>
      <trkpt lat="45.77212" lon="2.93776">
        <ele>945.4</ele>
        <time>2014-11-08T09:44:53Z</time>
      </trkpt>
      <trkpt lat="45.77272" lon="2.93739">
        <ele>944.9</ele>
        <time>2014-11-08T09:45:48Z</time>
      </trkpt>
      <trkpt lat="45.77339" lon="2.93725">
        <ele>946.3</ele>
        <time>2014-11-08T09:46:36Z</time>
      </trkpt>
      <trkpt lat="45.77403" lon="2.9369">
        <ele>947.9</ele>
        <time>2014-11-08T09:47:26Z</time>
      </trkpt>
      <trkpt lat="45.77464" lon="2.93649">
        <ele>948.8</ele>
        <time>2014-11-08T09:48:18Z</time>
      </trkpt>
      <trkpt lat="45.77527" lon="2.93621">
        <ele>949.3</ele>
        <time>2014-11-08T09:49:03Z</time>
      </trkpt>
      <trkpt lat="45.77591" lon="2.93608">
        <ele>948</ele>
        <time>2014-11-08T09:49:53Z</time>
      </trkpt>
      <trkpt lat="45.77658" lon="2.93594">
        <ele>945.7</ele>
        <time>2014-11-08T09:50:44Z</time>
      </trkpt>
      <trkpt lat="45.77724" lon="2.93584">
        <ele>944.1</ele>
        <time>2014-11-08T09:51:33Z</time>
      </trkpt>
      <trkpt lat="45.77789" lon="2.93557">
        <ele>943.1</ele>
        <time>2014-11-08T09:52:24Z</time>
      </trkpt>
      <trkpt lat="45.77847" lon="2.93518">
        <ele>942</ele>
        <time>2014-11-08T09:53:13Z</time>
      </trkpt>
      <trkpt lat="45.77903" lon="2.93473">
        <ele>943.5</ele>
        <time>2014-11-08T09:54:03Z</time>
      </trkpt>
      <trkpt lat="45.77968" lon="2.93447">
        <ele>946.7</ele>
        <time>2014-11-08T09:54:58Z</time>
      </trkpt>
      <trkpt lat="45.78036" lon="2.93422">
        <ele>949.8</ele>
        <time>2014-11-08T09:55:53Z</time>
      </trkpt>
      <trkpt lat="45.78106" lon="2.93418">
        <ele>952</ele>
        <time>2014-11-08T09:56:51Z</time>
      </trkpt>
      <trkpt lat="45.78183" lon="2.93432">
        <ele>952.7</ele>
        <time>2014-11-08T09:57:51Z</time>
      </trkpt>
      <trkpt lat="45.7823" lon="2.93338">
        <ele>947.9</ele>
        <time>2014-11-08T09:58:51Z</time>
      </trkpt>
      <trkpt lat="45.78264" lon="2.93248">
        <ele>942.4</ele>
        <time>2014-11-08T09:59:43Z</time>
      </trkpt>
      <trkpt lat="45.78293" lon="2.93158">
        <ele>936</ele>
        <time>2014-11-08T10:00:38Z</time>
      </trkpt>
      <trkpt lat="45.78334" lon="2.93072">
        <ele>928.5</ele>
        <time>2014-11-08T10:01:33Z</time>
      </trkpt>
      <trkpt lat="45.78394" lon="2.93018">
        <ele>924</ele>
        <time>2014-11-08T10:02:28Z</time>
      </trkpt>
      <trkpt lat="45.7842" lon="2.93109">
        <ele>929.7</ele>
        <time>2014-11-08T10:03:35Z</time>
      </trkpt>
      <trkpt lat="45.78445" lon="2.93196">
        <ele>936.1</ele>
        <time>2014-11-08T10:04:33Z</time>
      </trkpt>
      <trkpt lat="45.78483" lon="2.93279">
        <ele>942.9</ele>
        <time>2014-11-08T10:05:33Z</time>
      </trkpt>
      <trkpt lat="45.78518" lon="2.93361">
        <ele>950.3</ele>
        <time>2014-11-08T10:06:33Z</time>
      </trkpt>
      <trkpt lat="45.78512" lon="2.93454">
        <ele>959.1</ele>
        <time>2014-11-08T10:07:38Z</time>
      </trkpt>
      <trkpt lat="45.78524" lon="2.93553">
        <ele>964.8</ele>
        <time>2014-11-08T10:08:49Z</time>
      </trkpt>
      <trkpt lat="45.78532" lon="2.93645">
        <ele>971.3</ele>
        <time>2014-11-08T10:09:59Z</time>
      </trkpt>
      <trkpt lat="45.78544" lon="2.93746">
        <ele>979.5</ele>
        <time>2014-11-08T10:11:55Z</time>
      </trkpt>
      <trkpt lat="45.78571" lon="2.9383">
        <ele>988.1</ele>
        <time>2014-11-08T10:13:06Z</time>
      </trkpt>
      <trkpt lat="45.78584" lon="2.93926">
        <ele>998.1</ele>
        <time>2014-11-08T10:14:48Z</time>
      </trkpt>
      <trkpt lat="45.78593" lon="2.94023">
        <ele>1008.6</ele>
        <time>2014-11-08T10:16:26Z</time>
      </trkpt>
      <trkpt lat="45.78596" lon="2.94117">
        <ele>1017.7</ele>
        <time>2014-11-08T10:17:38Z</time>
      </trkpt>
      <trkpt lat="45.7862" lon="2.94215">
        <ele>1024.9</ele>
        <time>2014-11-08T10:18:58Z</time>
      </trkpt>
      <trkpt lat="45.78645" lon="2.94314">
        <ele>1030.6</ele>
        <time>2014-11-08T10:20:40Z</time>
      </trkpt>
      <trkpt lat="45.78647" lon="2.94399">
        <ele>1032.1</ele>
        <time>2014-11-08T10:21:39Z</time>
      </trkpt>
      <trkpt lat="45.78647" lon="2.94486">
        <ele>1034.4</ele>
        <time>2014-11-08T10:22:33Z</time>
      </trkpt>
      <trkpt lat="45.78618" lon="2.94587">
        <ele>1036.8</ele>
        <time>2014-11-08T10:23:45Z</time>
      </trkpt>
      <trkpt lat="45.78616" lon="2.94694">
        <ele>1040</ele>
        <time>2014-11-08T10:24:48Z</time>
      </trkpt>
      <trkpt lat="45.78626" lon="2.94798">
        <ele>1044.7</ele>
        <time>2014-11-08T10:25:58Z</time>
      </trkpt>
      <trkpt lat="45.78646" lon="2.94895">
        <ele>1050</ele>
        <time>2014-11-08T10:27:04Z</time>
      </trkpt>
      <trkpt lat="45.78637" lon="2.94995">
        <ele>1054.8</ele>
        <time>2014-11-08T10:28:18Z</time>
      </trkpt>
      <trkpt lat="45.78631" lon="2.95092">
        <ele>1059.9</ele>
        <time>2014-11-08T10:29:23Z</time>
      </trkpt>
      <trkpt lat="45.78626" lon="2.95188">
        <ele>1067.4</ele>
        <time>2014-11-08T10:30:33Z</time>
      </trkpt>
      <trkpt lat="45.78615" lon="2.95295">
        <ele>1065.7</ele>
        <time>2014-11-08T10:31:53Z</time>
      </trkpt>
      <trkpt lat="45.78613" lon="2.95427">
        <ele>1061.8</ele>
        <time>2014-11-08T10:33:13Z</time>
      </trkpt>
      <trkpt lat="45.78598" lon="2.95553">
        <ele>1062.9</ele>
        <time>2014-11-08T10:34:43Z</time>
      </trkpt>
      <trkpt lat="45.78586" lon="2.95685">
        <ele>1065.9</ele>
        <time>2014-11-08T10:36:03Z</time>
      </trkpt>
      <trkpt lat="45.7859" lon="2.95816">
        <ele>1071.8</ele>
        <time>2014-11-08T10:37:23Z</time>
      </trkpt>
      <trkpt lat="45.78501" lon="2.95853">
        <ele>1073.7</ele>
        <time>2014-11-08T10:39:08Z</time>
      </trkpt>
      <trkpt lat="45.78409" lon="2.95856">
        <ele>1073.4</ele>
        <time>2014-11-08T10:40:38Z</time>
      </trkpt>
      <trkpt lat="45.78317" lon="2.95851">
        <ele>1073.4</ele>
        <time>2014-11-08T10:42:03Z</time>
      </trkpt>
      <trkpt lat="45.78231" lon="2.95884">
        <ele>1073</ele>
        <time>2014-11-08T10:44:23Z</time>
      </trkpt>
      <trkpt lat="45.78273" lon="2.96002">
        <ele>1076.8</ele>
        <time>2014-11-08T10:45:43Z</time>
      </trkpt>
      <trkpt lat="45.78325" lon="2.96108">
        <ele>1080.8</ele>
        <time>2014-11-08T10:47:18Z</time>
      </trkpt>
      <trkpt lat="45.78421" lon="2.96102">
        <ele>1087.6</ele>
        <time>2014-11-08T10:49:30Z</time>
      </trkpt>
      <trkpt lat="45.78503" lon="2.96186">
        <ele>1101.1</ele>
        <time>2014-11-08T10:51:10Z</time>
      </trkpt>
      <trkpt lat="45.78408" lon="2.96255">
        <ele>1110.8</ele>
        <time>2014-11-08T10:53:38Z</time>
      </trkpt>
      <trkpt lat="45.78374" lon="2.96403">
        <ele>1122.1</ele>
        <time>2014-11-08T10:55:31Z</time>
      </trkpt>
      <trkpt lat="45.78394" lon="2.96549">
        <ele>1123.6</ele>
        <time>2014-11-08T10:57:08Z</time>
      </trkpt>
      <trkpt lat="45.78424" lon="2.96684">
        <ele>1124</ele>
        <time>2014-11-08T10:58:50Z</time>
      </trkpt>
      <trkpt lat="45.78447" lon="2.96795">
        <ele>1121.8</ele>
        <time>2014-11-08T11:00:00Z</time>
      </trkpt>
      <trkpt lat="45.78492" lon="2.96886">
        <ele>1123.1</ele>
        <time>2014-11-08T11:01:05Z</time>
      </trkpt>
      <trkpt lat="45.7852" lon="2.96994">
        <ele>1110.8</ele>
        <time>2014-11-08T11:02:16Z</time>
      </trkpt>
      <trkpt lat="45.78512" lon="2.97101">
        <ele>1098.5</ele>
        <time>2014-11-08T11:03:46Z</time>
      </trkpt>
      <trkpt lat="45.78486" lon="2.97184">
        <ele>1088</ele>
        <time>2014-11-08T11:04:50Z</time>
      </trkpt>
      <trkpt lat="45.78549" lon="2.97211">
        <ele>1076.4</ele>
        <time>2014-11-08T11:05:46Z</time>
      </trkpt>
      <trkpt lat="45.7856" lon="2.97334">
        <ele>1052.8</ele>
        <time>2014-11-08T11:07:39Z</time>
      </trkpt>
      <trkpt lat="45.7851" lon="2.97441">
        <ele>1038.7</ele>
        <time>2014-11-08T11:08:45Z</time>
      </trkpt>
      <trkpt lat="45.78459" lon="2.97536">
        <ele>1029.1</ele>
        <time>2014-11-08T11:09:47Z</time>
      </trkpt>
      <trkpt lat="45.78415" lon="2.97644">
        <ele>1017.8</ele>
        <time>2014-11-08T11:11:02Z</time>
      </trkpt>
      <trkpt lat="45.78364" lon="2.9774">
        <ele>1006.1</ele>
        <time>2014-11-08T11:12:04Z</time>
      </trkpt>
      <trkpt lat="45.78297" lon="2.97811">
        <ele>995.4</ele>
        <time>2014-11-08T11:13:04Z</time>
      </trkpt>
      <trkpt lat="45.78225" lon="2.97877">
        <ele>984.6</ele>
        <time>2014-11-08T11:14:14Z</time>
      </trkpt>
      <trkpt lat="45.78181" lon="2.97981">
        <ele>967.5</ele>
        <time>2014-11-08T11:15:49Z</time>
      </trkpt>
      <trkpt lat="45.78182" lon="2.98106">
        <ele>956.8</ele>
        <time>2014-11-08T11:16:57Z</time>
      </trkpt>
      <trkpt lat="45.78163" lon="2.9822">
        <ele>949.1</ele>
        <time>2014-11-08T11:17:55Z</time>
      </trkpt>
      <trkpt lat="45.78148" lon="2.98336">
        <ele>939.1</ele>
        <time>2014-11-08T11:19:05Z</time>
      </trkpt>
      <trkpt lat="45.78143" lon="2.98496">
        <ele>929.1</ele>
        <time>2014-11-08T11:20:34Z</time>
      </trkpt>
      <trkpt lat="45.78124" lon="2.98592">
        <ele>924.8</ele>
        <time>2014-11-08T11:21:24Z</time>
      </trkpt>
      <trkpt lat="45.78057" lon="2.98605">
        <ele>924.2</ele>
        <time>2014-11-08T11:22:04Z</time>
      </trkpt>
      <trkpt lat="45.77948" lon="2.9857">
        <ele>925.5</ele>
        <time>2014-11-08T11:23:52Z</time>
      </trkpt>
      <trkpt lat="45.77853" lon="2.98522">
        <ele>925.1</ele>
        <time>2014-11-08T11:25:04Z</time>
      </trkpt>
      <trkpt lat="45.7777" lon="2.98469">
        <ele>924.8</ele>
        <time>2014-11-08T11:26:06Z</time>
      </trkpt>
      <trkpt lat="45.77682" lon="2.98429">
        <ele>923.1</ele>
        <time>2014-11-08T11:27:14Z</time>
      </trkpt>
      <trkpt lat="45.77626" lon="2.98397">
        <ele>921.4</ele>
        <time>2014-11-08T11:28:00Z</time>
      </trkpt>
      <trkpt lat="45.77593" lon="2.98465">
        <ele>916.3</ele>
        <time>2014-11-08T11:28:45Z</time>
      </trkpt>
      <trkpt lat="45.77534" lon="2.98575">
        <ele>907.4</ele>
        <time>2014-11-08T11:29:59Z</time>
      </trkpt>
      <trkpt lat="45.77483" lon="2.98653">
        <ele>903.4</ele>
        <time>2014-11-08T11:30:59Z</time>
      </trkpt>
      <trkpt lat="45.77435" lon="2.98727">
        <ele>901.3</ele>
        <time>2014-11-08T11:31:54Z</time>
      </trkpt>
      <trkpt lat="45.77386" lon="2.988">
        <ele>897.6</ele>
        <time>2014-11-08T11:32:54Z</time>
      </trkpt>
      <trkpt lat="45.77339" lon="2.98876">
        <ele>891.4</ele>
        <time>2014-11-08T11:33:44Z</time>
      </trkpt>
      <trkpt lat="45.77316" lon="2.98978">
        <ele>884.5</ele>
        <time>2014-11-08T11:34:54Z</time>
      </trkpt>
      <trkpt lat="45.77304" lon="2.9908">
        <ele>878.8</ele>
        <time>2014-11-08T11:35:59Z</time>
      </trkpt>
      <trkpt lat="45.77284" lon="2.99183">
        <ele>871.9</ele>
        <time>2014-11-08T11:36:59Z</time>
      </trkpt>
      <trkpt lat="45.77249" lon="2.99269">
        <ele>869.3</ele>
        <time>2014-11-08T11:37:49Z</time>
      </trkpt>
      <trkpt lat="45.7722" lon="2.99366">
        <ele>865.9</ele>
        <time>2014-11-08T11:38:54Z</time>
      </trkpt>
      <trkpt lat="45.77187" lon="2.99465">
        <ele>863.2</ele>
        <time>2014-11-08T11:39:59Z</time>
      </trkpt>
      <trkpt lat="45.77135" lon="2.99531">
        <ele>855.5</ele>
        <time>2014-11-08T11:40:54Z</time>
      </trkpt>
      <trkpt lat="45.77072" lon="2.99589">
        <ele>847.1</ele>
        <time>2014-11-08T11:41:55Z</time>
      </trkpt>
      <trkpt lat="45.77038" lon="2.99681">
        <ele>841.3</ele>
        <time>2014-11-08T11:42:49Z</time>
      </trkpt>
      <trkpt lat="45.77003" lon="2.99759">
        <ele>836.8</ele>
        <time>2014-11-08T11:43:34Z</time>
      </trkpt>
      <trkpt lat="45.76962" lon="2.99844">
        <ele>833.3</ele>
        <time>2014-11-08T11:44:44Z</time>
      </trkpt>
      <trkpt lat="45.7692" lon="2.99926">
        <ele>828.5</ele>
        <time>2014-11-08T11:45:39Z</time>
      </trkpt>
      <trkpt lat="45.7687" lon="3.00012">
        <ele>825.4</ele>
        <time>2014-11-08T11:46:49Z</time>
      </trkpt>
      <trkpt lat="45.76867" lon="3.0013">
        <ele>823.5</ele>
        <time>2014-11-08T11:47:54Z</time>
      </trkpt>
      <trkpt lat="45.76875" lon="3.00232">
        <ele>822</ele>
        <time>2014-11-08T11:49:00Z</time>
      </trkpt>
      <trkpt lat="45.76888" lon="3.00339">
        <ele>820.8</ele>
        <time>2014-11-08T11:49:59Z</time>
      </trkpt>
      <trkpt lat="45.76892" lon="3.00439">
        <ele>817.3</ele>
        <time>2014-11-08T11:50:49Z</time>
      </trkpt>
      <trkpt lat="45.76876" lon="3.00546">
        <ele>813.5</ele>
        <time>2014-11-08T11:51:44Z</time>
      </trkpt>
      <trkpt lat="45.76877" lon="3.00644">
        <ele>809.3</ele>
        <time>2014-11-08T11:52:40Z</time>
      </trkpt>
      <trkpt lat="45.76901" lon="3.00753">
        <ele>805.3</ele>
        <time>2014-11-08T11:53:43Z</time>
      </trkpt>
      <trkpt lat="45.7694" lon="3.00842">
        <ele>802.4</ele>
        <time>2014-11-08T11:54:32Z</time>
      </trkpt>
      <trkpt lat="45.76955" lon="3.00946">
        <ele>799.1</ele>
        <time>2014-11-08T11:55:27Z</time>
      </trkpt>
      <trkpt lat="45.76971" lon="3.01052">
        <ele>798</ele>
        <time>2014-11-08T11:56:22Z</time>
      </trkpt>
      <trkpt lat="45.77009" lon="3.01136">
        <ele>797.4</ele>
        <time>2014-11-08T11:57:22Z</time>
      </trkpt>
      <trkpt lat="45.77049" lon="3.01227">
        <ele>796.5</ele>
        <time>2014-11-08T11:58:19Z</time>
      </trkpt>
      <trkpt lat="45.77086" lon="3.01313">
        <ele>793.6</ele>
        <time>2014-11-08T11:59:15Z</time>
      </trkpt>
      <trkpt lat="45.77132" lon="3.01399">
        <ele>793.4</ele>
        <time>2014-11-08T12:00:07Z</time>
      </trkpt>
      <trkpt lat="45.77167" lon="3.01493">
        <ele>789.5</ele>
        <time>2014-11-08T12:01:02Z</time>
      </trkpt>
      <trkpt lat="45.77217" lon="3.01554">
        <ele>786.5</ele>
        <time>2014-11-08T12:01:52Z</time>
      </trkpt>
      <trkpt lat="45.77262" lon="3.01632">
        <ele>779.6</ele>
        <time>2014-11-08T12:02:45Z</time>
      </trkpt>
      <trkpt lat="45.77306" lon="3.01718">
        <ele>777.2</ele>
        <time>2014-11-08T12:03:37Z</time>
      </trkpt>
      <trkpt lat="45.7731" lon="3.01819">
        <ele>771.1</ele>
        <time>2014-11-08T12:04:42Z</time>
      </trkpt>
      <trkpt lat="45.7736" lon="3.01878">
        <ele>762</ele>
        <time>2014-11-08T12:05:37Z</time>
      </trkpt>
      <trkpt lat="45.77424" lon="3.01925">
        <ele>753.6</ele>
        <time>2014-11-08T12:06:35Z</time>
      </trkpt>
      <trkpt lat="45.77482" lon="3.01984">
        <ele>753.8</ele>
        <time>2014-11-08T12:07:32Z</time>
      </trkpt>
      <trkpt lat="45.77515" lon="3.02069">
        <ele>745.3</ele>
        <time>2014-11-08T12:08:28Z</time>
      </trkpt>
      <trkpt lat="45.77544" lon="3.02152">
        <ele>737.4</ele>
        <time>2014-11-08T12:09:22Z</time>
      </trkpt>
      <trkpt lat="45.77561" lon="3.02249">
        <ele>734.8</ele>
        <time>2014-11-08T12:10:12Z</time>
      </trkpt>
      <trkpt lat="45.77576" lon="3.02339">
        <ele>735.9</ele>
        <time>2014-11-08T12:11:02Z</time>
      </trkpt>
      <trkpt lat="45.77598" lon="3.02426">
        <ele>737</ele>
        <time>2014-11-08T12:11:47Z</time>
      </trkpt>
      <trkpt lat="45.77628" lon="3.02512">
        <ele>736.6</ele>
        <time>2014-11-08T12:12:37Z</time>
      </trkpt>
      <trkpt lat="45.77652" lon="3.02597">
        <ele>734.2</ele>
        <time>2014-11-08T12:13:22Z</time>
      </trkpt>
      <trkpt lat="45.77674" lon="3.02689">
        <ele>730.8</ele>
        <time>2014-11-08T12:14:12Z</time>
      </trkpt>
      <trkpt lat="45.7769" lon="3.02783">
        <ele>729.7</ele>
        <time>2014-11-08T12:14:59Z</time>
      </trkpt>
      <trkpt lat="45.77698" lon="3.02889">
        <ele>726.2</ele>
        <time>2014-11-08T12:15:57Z</time>
      </trkpt>
      <trkpt lat="45.77725" lon="3.0298">
        <ele>721.5</ele>
        <time>2014-11-08T12:16:57Z</time>
      </trkpt>
      <trkpt lat="45.77778" lon="3.03046">
        <ele>713.4</ele>
        <time>2014-11-08T12:17:53Z</time>
      </trkpt>
      <trkpt lat="45.77831" lon="3.03116">
        <ele>707.5</ele>
        <time>2014-11-08T12:18:47Z</time>
      </trkpt>
      <trkpt lat="45.77874" lon="3.03194">
        <ele>703</ele>
        <time>2014-11-08T12:19:42Z</time>
      </trkpt>
      <trkpt lat="45.77895" lon="3.0329">
        <ele>697.8</ele>
        <time>2014-11-08T12:20:37Z</time>
      </trkpt>
      <trkpt lat="45.77927" lon="3.03374">
        <ele>693.2</ele>
        <time>2014-11-08T12:21:38Z</time>
      </trkpt>
      <trkpt lat="45.77965" lon="3.03451">
        <ele>684.2</ele>
        <time>2014-11-08T12:22:32Z</time>
      </trkpt>
      <trkpt lat="45.77998" lon="3.03539">
        <ele>669.3</ele>
        <time>2014-11-08T12:24:08Z</time>
      </trkpt>
      <trkpt lat="45.77989" lon="3.03643">
        <ele>657.1</ele>
        <time>2014-11-08T12:25:32Z</time>
      </trkpt>
      <trkpt lat="45.77976" lon="3.03739">
        <ele>644.2</ele>
        <time>2014-11-08T12:26:37Z</time>
      </trkpt>
      <trkpt lat="45.7798" lon="3.03838">
        <ele>626.4</ele>
        <time>2014-11-08T12:28:37Z</time>
      </trkpt>
      <trkpt lat="45.77983" lon="3.03947">
        <ele>619.2</ele>
        <time>2014-11-08T12:29:58Z</time>
      </trkpt>
      <trkpt lat="45.77932" lon="3.04032">
        <ele>604.5</ele>
        <time>2014-11-08T12:31:03Z</time>
      </trkpt>
      <trkpt lat="45.77926" lon="3.04141">
        <ele>595.3</ele>
        <time>2014-11-08T12:32:07Z</time>
      </trkpt>
      <trkpt lat="45.77974" lon="3.04225">
        <ele>585.8</ele>
        <time>2014-11-08T12:33:12Z</time>
      </trkpt>
    </trkseg>
  </trk>
</gpx>